Time;durP1;ratioP1;P1;durP2;ratioP2;P2;SDS_P1;SDS_P2;PMS_P1;PMS_P2;Temp;Humidity;BMP_temperature;BMP_pressure;BME280_temperature;BME280_humidity;BME280_pressure;Samples;Min_cycle;Max_cycle;Signal;HPM_P1;HPM_P2
2023/10/09 00:01:01;;;;;;;3.63;2.00;;;;;;;13.25;70.35;101344.13;5033439;28;20195;-72
2023/10/09 00:03:30;;;;;;;4.40;1.93;;;;;;;13.27;69.91;101347.50;5033575;28;20548;-72
2023/10/09 00:06:01;;;;;;;3.03;2.20;;;;;;;13.27;69.71;101336.72;5033656;28;20214;-72
2023/10/09 00:08:31;;;;;;;4.03;2.17;;;;;;;13.26;69.38;101320.75;5033623;28;20273;-72
2023/10/09 00:11:13;;;;;;;3.10;1.77;;;;;;;13.27;69.14;101320.59;5033622;28;20191;-72
2023/10/09 00:13:48;;;;;;;3.30;2.00;;;;;;;13.26;69.41;101324.28;5033422;28;20242;-72
2023/10/09 00:16:32;;;;;;;3.60;1.87;;;;;;;13.26;68.67;101313.53;5032549;28;20642;-72
2023/10/09 00:19:14;;;;;;;3.03;1.63;;;;;;;13.24;68.88;101302.09;5033777;28;20226;-72
2023/10/09 00:21:43;;;;;;;3.73;1.60;;;;;;;13.24;68.70;101302.09;5033192;28;20230;-72
2023/10/09 00:24:16;;;;;;;2.47;1.63;;;;;;;13.23;69.05;101278.91;5033194;28;20231;-72
2023/10/09 00:26:46;;;;;;;2.33;1.60;;;;;;;13.16;68.94;101276.03;5033468;28;20187;-72
2023/10/09 00:29:21;;;;;;;2.43;1.50;;;;;;;13.15;68.90;101273.53;5033690;28;20210;-72
2023/10/09 00:32:13;;;;;;;4.13;1.73;;;;;;;13.16;68.76;101259.06;5033414;28;20217;-72
2023/10/09 00:34:41;;;;;;;1.80;1.70;;;;;;;13.16;69.10;101248.31;5033187;28;20318;-72
2023/10/09 00:37:16;;;;;;;3.57;1.90;;;;;;;13.15;69.74;101246.63;5033319;28;20261;-72
2023/10/09 00:39:45;;;;;;;4.33;1.67;;;;;;;13.16;69.04;101245.63;5033329;28;20286;-72
2023/10/09 00:42:22;;;;;;;1.60;1.47;;;;;;;13.14;69.35;101244.94;5033277;28;20309;-72
2023/10/09 00:44:51;;;;;;;3.93;1.77;;;;;;;13.15;69.51;101233.19;5032916;28;20219;-72
2023/10/09 00:47:21;;;;;;;4.70;1.57;;;;;;;13.08;69.87;101230.25;5033254;28;20262;-72
2023/10/09 00:49:59;;;;;;;2.97;1.83;;;;;;;13.08;69.91;101222.19;5033240;28;20321;-71
2023/10/09 00:52:39;;;;;;;2.27;1.50;;;;;;;13.09;70.04;101220.41;5033161;28;20555;-71
2023/10/09 00:55:13;;;;;;;2.67;1.60;;;;;;;13.11;69.95;101210.34;5033096;28;20321;-72
2023/10/09 00:57:50;;;;;;;2.17;1.40;;;;;;;13.11;70.29;101213.88;5033146;28;20525;-72
2023/10/09 01:00:32;;;;;;;2.50;1.60;;;;;;;13.12;70.24;101215.53;5033206;28;20195;-72
2023/10/09 01:03:18;;;;;;;2.10;1.70;;;;;;;13.12;70.07;101212.00;5033168;28;20191;-72
2023/10/09 01:05:57;;;;;;;2.40;1.60;;;;;;;13.12;70.33;101214.69;5033137;28;20191;-72
2023/10/09 01:08:30;;;;;;;2.17;1.57;;;;;;;13.12;71.07;101217.38;5033091;28;20195;-72
2023/10/09 01:11:09;;;;;;;2.40;1.60;;;;;;;13.10;71.64;101228.31;5033081;28;20241;-72
2023/10/09 01:13:41;;;;;;;2.30;1.60;;;;;;;13.10;71.54;101222.94;5032572;28;20233;-72
2023/10/09 01:16:16;;;;;;;2.87;1.83;;;;;;;13.12;70.98;101230.81;5032985;28;20199;-72
2023/10/09 01:18:49;;;;;;;4.40;1.90;;;;;;;12.99;70.50;101225.03;5033014;28;20279;-72
2023/10/09 01:21:18;;;;;;;2.00;1.80;;;;;;;12.86;71.27;101214.78;5032977;28;20249;-72
2023/10/09 01:24:03;;;;;;;3.47;2.10;;;;;;;12.93;71.37;101212.25;5032416;28;20770;-72
2023/10/09 01:26:34;;;;;;;3.20;1.80;;;;;;;12.98;72.55;101210.75;5032608;28;20633;-72
2023/10/09 01:29:03;;;;;;;3.43;1.90;;;;;;;13.04;72.90;101209.28;5036594;28;20210;-72
2023/10/09 01:31:43;;;;;;;3.23;1.80;;;;;;;13.02;72.28;101203.22;5036476;28;20289;-72
2023/10/09 01:34:13;;;;;;;3.10;2.00;;;;;;;13.03;72.28;101200.38;5036322;28;20634;-72
2023/10/09 01:36:42;;;;;;;2.17;1.63;;;;;;;13.05;72.01;101203.72;5036644;28;20300;-72
2023/10/09 01:39:23;;;;;;;2.57;1.83;;;;;;;13.05;72.19;101197.50;5036318;28;20269;-72
2023/10/09 01:41:58;;;;;;;3.27;1.97;;;;;;;12.99;72.42;101206.22;5035961;28;20222;-72
2023/10/09 01:44:30;;;;;;;3.37;1.90;;;;;;;12.99;72.99;101187.41;5036128;28;20720;-72
2023/10/09 01:46:58;;;;;;;3.23;1.80;;;;;;;13.02;73.19;101170.94;5036237;28;20287;-72
2023/10/09 01:49:32;;;;;;;2.03;1.73;;;;;;;13.03;73.25;101162.75;5036117;28;20297;-72
2023/10/09 01:52:08;;;;;;;5.13;1.80;;;;;;;13.04;73.50;101168.97;5035811;28;20289;-72
2023/10/09 01:54:40;;;;;;;3.23;1.87;;;;;;;13.02;73.53;101171.78;5035962;28;20262;-72
2023/10/09 01:57:12;;;;;;;3.87;2.20;;;;;;;13.01;73.97;101172.78;5036061;28;20270;-72
2023/10/09 01:59:44;;;;;;;3.57;2.23;;;;;;;13.04;74.06;101177.03;5035968;28;20195;-72
2023/10/09 02:02:25;;;;;;;3.90;1.93;;;;;;;13.02;74.25;101166.41;5036153;28;20286;-72
2023/10/09 02:05:04;;;;;;;4.17;2.33;;;;;;;13.02;74.94;101170.94;5035786;28;20226;-72
2023/10/09 02:07:40;;;;;;;3.97;2.30;;;;;;;12.99;74.31;101168.59;5035554;28;20645;-72
2023/10/09 02:10:21;;;;;;;4.27;2.17;;;;;;;12.98;74.22;101151.63;5035762;28;20198;-72
2023/10/09 02:12:57;;;;;;;3.20;2.37;;;;;;;12.99;74.83;101161.38;5035465;28;20601;-72
2023/10/09 02:18:39;;;;;;;4.27;2.53;;;;;;;13.01;76.21;101142.41;5091682;28;20553;-71
2023/10/09 02:21:15;;;;;;;4.97;2.47;;;;;;;13.00;78.67;101151.47;5091021;28;20231;-71
2023/10/09 02:23:49;;;;;;;3.93;2.50;;;;;;;12.99;78.92;101144.41;5090908;28;20220;-71
2023/10/09 02:26:25;;;;;;;5.10;2.60;;;;;;;13.00;78.79;101113.84;5090983;28;20184;-71
2023/10/09 02:28:59;;;;;;;3.97;2.33;;;;;;;12.92;79.08;101085.13;5090946;28;20219;-71
2023/10/09 02:31:35;;;;;;;5.00;2.47;;;;;;;12.88;79.07;101077.53;5090587;28;20650;-71
2023/10/09 02:34:11;;;;;;;4.87;2.50;;;;;;;12.94;79.30;101083.13;5090785;28;20221;-71
2023/10/09 02:36:43;;;;;;;5.23;2.40;;;;;;;12.94;79.01;101090.34;5090717;28;20212;-71
2023/10/09 02:39:22;;;;;;;4.03;2.70;;;;;;;12.94;79.54;101098.41;5091314;28;20189;-70
2023/10/09 02:41:54;;;;;;;4.50;2.53;;;;;;;12.95;79.86;101103.59;5090718;28;20213;-70
2023/10/09 02:44:31;;;;;;;2.97;2.50;;;;;;;12.95;80.52;101095.53;5090299;28;20606;-70
2023/10/09 02:47:05;;;;;;;2.80;2.50;;;;;;;12.98;80.55;101091.69;5090652;28;20542;-70
2023/10/09 02:49:38;;;;;;;4.37;2.83;;;;;;;13.02;80.78;101095.69;5090543;28;20284;-70
2023/10/09 02:52:07;;;;;;;4.70;2.53;;;;;;;12.95;82.69;101095.53;5090510;28;20291;-70
2023/10/09 02:54:41;;;;;;;4.00;2.57;;;;;;;12.96;83.20;101091.84;5090030;28;20602;-70
2023/10/09 02:57:15;;;;;;;5.63;2.50;;;;;;;12.97;81.99;101079.25;5090378;28;20217;-70
2023/10/09 02:59:44;;;;;;;3.63;2.77;;;;;;;12.99;81.91;101058.41;5090064;28;20662;-70
2023/10/09 03:02:13;;;;;;;3.93;2.47;;;;;;;13.00;82.00;101062.78;5090243;28;20212;-70
2023/10/09 03:04:45;;;;;;;3.80;2.40;;;;;;;12.97;83.44;101065.81;5090164;28;20274;-70
2023/10/09 03:07:14;;;;;;;4.30;2.40;;;;;;;12.99;83.83;101075.38;5090269;28;20185;-70
2023/10/09 03:09:42;;;;;;;3.97;2.63;;;;;;;13.00;83.83;101065.47;5089869;28;20651;-70
2023/10/09 03:12:12;;;;;;;4.77;3.07;;;;;;;12.99;83.36;101056.56;5090072;28;20212;-70
2023/10/09 03:14:42;;;;;;;4.13;2.70;;;;;;;12.97;83.16;101044.31;5090126;28;20231;-70
2023/10/09 03:17:12;;;;;;;4.00;2.67;;;;;;;12.99;83.61;101040.44;5089543;28;20698;-70
2023/10/09 03:19:43;;;;;;;4.30;2.57;;;;;;;12.98;83.92;101035.25;5089985;28;20208;-70
2023/10/09 03:22:12;;;;;;;5.17;2.80;;;;;;;12.97;83.87;101018.28;5089942;28;20197;-70
2023/10/09 03:24:44;;;;;;;4.80;2.60;;;;;;;12.92;84.32;101011.72;5089872;28;20252;-70
2023/10/09 03:27:18;;;;;;;4.97;2.60;;;;;;;12.88;84.18;101007.69;5089560;28;20662;-70
2023/10/09 03:29:49;;;;;;;4.47;2.60;;;;;;;12.88;84.59;101013.03;5075842;28;20216;-70
2023/10/09 03:32:19;;;;;;;6.03;2.97;;;;;;;12.88;85.02;101004.97;5076235;28;20303;-70
2023/10/09 03:34:51;;;;;;;3.97;2.90;;;;;;;12.90;84.48;101009.22;5075805;28;20745;-70
2023/10/09 03:37:33;;;;;;;4.10;2.70;;;;;;;12.90;84.51;101001.16;5076087;28;20249;-70
2023/10/09 03:40:03;;;;;;;5.47;2.90;;;;;;;12.87;84.47;101000.66;5076129;28;20194;-70
2023/10/09 03:42:33;;;;;;;4.37;2.50;;;;;;;12.90;84.36;101001.16;5075756;28;20702;-70
2023/10/09 03:45:02;;;;;;;3.80;2.80;;;;;;;12.90;84.71;100994.94;5076781;28;20225;-70
2023/10/09 03:47:31;;;;;;;4.53;2.53;;;;;;;12.92;85.20;100991.06;5075920;28;20206;-70
2023/10/09 03:50:20;;;;;;;4.37;2.90;;;;;;;12.91;85.41;100984.00;5075599;28;20577;-70
2023/10/09 03:52:50;;;;;;;4.33;2.93;;;;;;;12.94;85.57;100988.22;5075919;28;20280;-70
2023/10/09 03:55:27;;;;;;;4.33;3.03;;;;;;;12.95;86.14;100984.50;5075832;28;20261;-70
2023/10/09 03:57:59;;;;;;;6.57;3.27;;;;;;;12.91;86.14;100986.69;5075704;28;20213;-70
2023/10/09 04:00:29;;;;;;;8.07;3.77;;;;;;;12.84;88.02;100980.34;5075723;28;20266;-70
2023/10/09 04:02:59;;;;;;;8.13;4.07;;;;;;;12.65;89.38;100980.66;5075382;28;20671;-70
2023/10/09 04:05:29;;;;;;;11.03;4.60;;;;;;;12.66;90.01;100990.41;5075516;28;20263;-70
2023/10/09 04:08:12;;;;;;;9.00;5.07;;;;;;;12.71;90.29;100993.41;5075583;28;20206;-70
2023/10/09 04:10:50;;;;;;;10.77;5.20;;;;;;;12.67;91.31;100995.59;5075242;28;20731;-70
2023/10/09 04:13:32;;;;;;;9.50;5.80;;;;;;;12.62;92.29;100984.53;5075405;28;20190;-70
2023/10/09 04:16:09;;;;;;;12.23;6.07;;;;;;;12.63;92.92;100988.91;5075334;28;20235;-70
2023/10/09 04:18:39;;;;;;;12.10;7.37;;;;;;;12.56;93.86;100982.50;5074966;28;20212;-70
2023/10/09 04:21:18;;;;;;;13.07;7.50;;;;;;;12.58;94.17;100977.81;5075317;28;20197;-70
2023/10/09 04:26:36;;;;;;;14.07;8.57;;;;;;;12.61;95.60;100973.94;5075235;28;20271;-70
2023/10/09 04:29:06;;;;;;;12.50;7.40;;;;;;;12.63;95.71;100972.78;5075190;28;20185;-72
2023/10/09 04:31:37;;;;;;;12.70;8.33;;;;;;;12.65;96.33;100978.81;5075055;28;20205;-72
2023/10/09 04:34:34;;;;;;;14.30;7.83;;;;;;;12.67;95.94;100984.03;5074913;28;20321;-73
2023/10/09 04:37:36;;;;;;;14.37;8.40;;;;;;;12.74;95.82;100987.69;5074744;28;20737;-73
2023/10/09 04:40:12;;;;;;;17.93;9.40;;;;;;;12.76;96.06;100990.22;5074104;28;20262;-74
2023/10/09 04:42:46;;;;;;;19.73;9.17;;;;;;;12.77;96.40;100997.28;5073359;28;20286;-73
2023/10/09 04:46:06;;;;;;;21.53;8.97;;;;;;;12.75;97.27;100985.84;5073988;28;20229;-73
2023/10/09 04:48:32;;;;;;;23.23;10.73;;;;;;;12.78;97.50;100985.50;5074380;28;20231;-73
2023/10/09 04:53:54;;;;;;;26.23;10.90;;;;;;;12.83;97.80;100972.44;5063455;28;20286;-73
2023/10/09 04:56:24;;;;;;;22.20;11.90;;;;;;;12.81;98.37;100969.09;5074643;28;20221;-74
2023/10/09 04:59:03;;;;;;;17.47;9.97;;;;;;;12.84;98.36;100964.22;5074429;28;20359;-74
2023/10/09 05:01:43;;;;;;;26.27;13.00;;;;;;;12.86;99.10;100956.81;5074514;28;20194;-74
2023/10/09 05:04:29;;;;;;;24.93;14.27;;;;;;;12.86;100.00;100958.66;5074421;28;20232;-74
2023/10/09 05:06:58;;;;;;;31.43;15.57;;;;;;;12.84;100.00;100963.38;5074361;28;20194;-72
2023/10/09 05:09:55;;;;;;;30.17;16.80;;;;;;;12.86;100.00;100966.72;5074007;28;20758;-73
2023/10/09 05:12:16;;;;;;;37.10;17.53;;;;;;;12.86;100.00;100969.41;5073879;28;20291;-73
2023/10/09 05:15:04;;;;;;;33.77;17.50;;;;;;;12.89;100.00;100991.41;5074163;28;20240;-73
2023/10/09 05:17:34;;;;;;;29.60;18.13;;;;;;;12.93;100.00;100992.75;5073743;28;20239;-73
2023/10/09 05:22:58;;;;;;;40.97;22.83;;;;;;;13.00;100.00;100966.03;5074073;28;20200;-73
2023/10/09 05:28:30;;;;;;;35.33;20.83;;;;;;;13.04;100.00;100994.25;5074046;28;20272;-72
2023/10/09 05:31:08;;;;;;;46.33;26.47;;;;;;;13.07;100.00;100991.22;5073981;28;20200;-73
2023/10/09 05:33:38;;;;;;;51.80;28.50;;;;;;;13.10;100.00;101001.66;5073974;28;20190;-73
2023/10/09 05:36:31;;;;;;;51.20;28.10;;;;;;;13.10;100.00;101018.63;5074125;28;20206;-73
2023/10/09 05:39:17;;;;;;;49.20;26.60;;;;;;;13.11;100.00;101008.72;5073792;28;20209;-73
2023/10/09 05:41:51;;;;;;;49.83;26.87;;;;;;;13.14;100.00;101003.00;5073822;28;20185;-73
2023/10/09 05:47:35;;;;;;;60.50;29.60;;;;;;;13.18;100.00;100999.78;5073442;28;20285;-73
2023/10/09 05:53:05;;;;;;;58.00;29.37;;;;;;;13.19;100.00;100979.09;5073323;28;20296;-73
2023/10/09 06:02:44;;;;;;;53.27;28.47;;;;;;;13.25;100.00;100994.59;5073240;28;20663;-73
2023/10/09 06:04:15;;;;;;;62.63;30.63;;;;;;;13.27;100.00;101007.84;5073097;28;20236;-73
2023/10/09 06:06:44;;;;;;;60.40;31.07;;;;;;;13.27;100.00;101019.44;5073528;28;20216;-73
2023/10/09 06:09:49;;;;;;;72.37;33.27;;;;;;;13.28;100.00;101026.50;5073441;28;20296;-73
2023/10/09 06:12:33;;;;;;;61.67;30.67;;;;;;;13.28;100.00;101015.75;5073460;28;20197;-73
2023/10/09 06:18:25;;;;;;;64.27;32.17;;;;;;;13.30;100.00;101012.88;5152672;27;20542;-73
2023/10/09 06:21:08;;;;;;;64.47;32.30;;;;;;;13.29;100.00;101017.41;5152040;27;20285;-73
2023/10/09 06:24:08;;;;;;;66.03;31.40;;;;;;;13.32;100.00;101025.13;5151980;27;20653;-73
2023/10/09 06:26:37;;;;;;;58.40;30.03;;;;;;;13.32;100.00;101025.13;5152480;27;20184;-73
2023/10/09 06:29:13;;;;;;;57.73;29.43;;;;;;;13.33;100.00;101024.13;5152426;27;20290;-74
2023/10/09 06:31:59;;;;;;;53.67;29.37;;;;;;;13.33;100.00;101024.13;5152476;27;20233;-74
2023/10/09 06:34:35;;;;;;;50.90;28.50;;;;;;;13.34;100.00;101030.34;5152265;27;20265;-73
2023/10/09 06:37:17;;;;;;;57.97;29.13;;;;;;;13.34;100.00;101031.19;5152253;27;20211;-73
2023/10/09 06:39:50;;;;;;;50.80;24.37;;;;;;;13.34;100.00;101031.19;5152032;27;20281;-73
2023/10/09 06:42:33;;;;;;;42.30;26.10;;;;;;;13.35;100.00;101040.94;5151901;27;20697;-73
2023/10/09 06:45:32;;;;;;;44.47;24.80;;;;;;;13.35;100.00;101035.56;5151729;27;20772;-73
2023/10/09 06:47:55;;;;;;;50.43;25.80;;;;;;;13.37;100.00;101038.06;5151669;27;20199;-74
2023/10/09 06:50:25;;;;;;;47.23;25.63;;;;;;;13.37;100.00;101030.84;5152054;27;20275;-74
2023/10/09 06:53:20;;;;;;;49.47;26.13;;;;;;;13.37;100.00;101030.00;5151831;27;20702;-73
2023/10/09 06:56:05;;;;;;;51.40;27.67;;;;;;;13.38;100.00;101032.53;5152091;27;20633;-73
2023/10/09 06:58:42;;;;;;;53.00;27.80;;;;;;;13.38;100.00;101035.22;5152524;27;20190;-73
2023/10/09 07:01:19;;;;;;;51.97;27.23;;;;;;;13.40;100.00;101035.03;5152385;27;20593;-73
2023/10/09 07:03:53;;;;;;;51.23;28.87;;;;;;;13.41;100.00;101025.97;5151991;27;20218;-73
2023/10/09 07:06:47;;;;;;;54.40;29.93;;;;;;;13.41;100.00;101026.81;5151814;27;20732;-74
2023/10/09 07:09:19;;;;;;;53.50;29.23;;;;;;;13.42;100.00;101030.34;5151207;27;20203;-73
2023/10/09 07:11:57;;;;;;;60.40;31.23;;;;;;;13.42;100.00;101044.63;5151672;27;20195;-73
2023/10/09 07:17:23;;;;;;;61.47;30.67;;;;;;;13.44;100.00;101033.69;5151005;27;20592;-73
2023/10/09 07:20:11;;;;;;;58.03;30.80;;;;;;;13.45;100.00;101027.31;5151487;27;20264;-73
2023/10/09 07:22:56;;;;;;;59.80;30.63;;;;;;;13.44;100.00;101025.63;5151404;27;20270;-73
2023/10/09 07:25:41;;;;;;;60.00;31.27;;;;;;;13.45;100.00;101025.47;5150998;27;20595;-73
2023/10/09 07:28:36;;;;;;;52.27;28.47;;;;;;;13.45;100.00;101012.00;5144156;27;20183;-73
2023/10/09 07:31:08;;;;;;;54.47;28.47;;;;;;;13.45;100.00;101001.25;5137137;27;20642;-73
2023/10/09 07:36:37;;;;;;;56.33;29.60;;;;;;;13.47;100.00;101004.59;5091605;27;20898;-73
2023/10/09 07:39:17;;;;;;;64.37;30.60;;;;;;;13.47;100.00;100996.53;5090626;28;20714;-73
2023/10/09 07:41:56;;;;;;;59.27;30.10;;;;;;;13.49;100.00;100994.50;5091004;28;20233;-73
2023/10/09 07:47:22;;;;;;;56.33;31.00;;;;;;;13.52;100.00;100993.31;5088349;28;20209;-73
2023/10/09 07:49:53;;;;;;;58.63;30.03;;;;;;;13.51;100.00;100995.19;5090827;28;20193;-73
2023/10/09 07:52:26;;;;;;;57.70;30.57;;;;;;;13.51;100.00;101003.25;5090524;28;20653;-73
2023/10/09 07:55:03;;;;;;;50.67;28.30;;;;;;;13.52;100.00;100999.56;5090259;28;20224;-73
2023/10/09 07:57:39;;;;;;;54.90;29.70;;;;;;;13.55;100.00;100992.97;5091574;28;20189;-73
2023/10/09 08:03:00;;;;;;;49.80;28.23;;;;;;;13.56;100.00;100975.84;5089998;28;20211;-73
2023/10/09 08:05:33;;;;;;;51.90;29.83;;;;;;;13.57;100.00;100972.94;5090513;28;20220;-73
2023/10/09 08:08:39;;;;;;;54.23;30.03;;;;;;;13.57;100.00;100961.34;5090391;28;20285;-64
2023/10/09 08:14:02;;;;;;;53.93;29.30;;;;;;;13.60;100.00;100966.38;5090274;28;20228;-73
2023/10/09 08:16:39;;;;;;;54.03;30.50;;;;;;;13.61;100.00;100951.91;5090184;28;20235;-73
2023/10/09 08:19:32;;;;;;;57.03;31.07;;;;;;;13.63;100.00;100958.78;5090292;28;20375;-73
2023/10/09 08:22:37;;;;;;;59.00;30.23;;;;;;;13.67;100.00;100956.59;5090950;28;20186;-71
2023/10/09 08:25:08;;;;;;;53.77;30.33;;;;;;;13.71;100.00;100966.00;5090123;28;20252;-72
2023/10/09 08:27:46;;;;;;;53.30;28.67;;;;;;;13.73;100.00;100965.84;5089766;28;20217;-72
2023/10/09 08:30:29;;;;;;;45.43;25.97;;;;;;;13.75;100.00;100963.81;5089884;28;20648;-72
2023/10/09 08:33:05;;;;;;;46.47;28.10;;;;;;;13.78;100.00;100974.22;5088991;28;20189;-72
2023/10/09 08:35:47;;;;;;;45.07;26.53;;;;;;;13.78;100.00;100969.66;5089570;28;20399;-72
2023/10/09 08:38:23;;;;;;;47.53;27.53;;;;;;;13.82;100.00;100978.22;5089850;28;20189;-73
2023/10/09 08:40:58;;;;;;;50.77;26.93;;;;;;;13.85;100.00;100985.94;5089872;28;20189;-73
2023/10/09 08:43:30;;;;;;;51.13;28.30;;;;;;;13.88;100.00;100981.06;5089827;28;20189;-73
2023/10/09 08:46:01;;;;;;;42.57;26.00;;;;;;;13.90;100.00;100981.75;5086988;28;20248;-72
2023/10/09 08:48:31;;;;;;;43.83;26.67;;;;;;;13.93;100.00;100991.31;5076455;28;20195;-72
2023/10/09 08:51:06;;;;;;;47.33;27.13;;;;;;;13.96;100.00;100999.03;5075890;28;20241;-72
2023/10/09 08:53:34;;;;;;;48.50;25.67;;;;;;;13.99;100.00;101004.06;5076180;28;20189;-72
2023/10/09 08:56:05;;;;;;;42.60;26.00;;;;;;;14.03;100.00;101003.53;5075832;28;20328;-72
2023/10/09 08:58:36;;;;;;;41.37;26.00;;;;;;;14.03;100.00;101000.84;5076152;28;20194;-72
2023/10/09 09:01:05;;;;;;;41.03;25.63;;;;;;;14.04;100.00;101001.69;5075715;28;20668;-71
2023/10/09 09:03:40;;;;;;;40.67;25.43;;;;;;;14.05;100.00;101003.34;5076224;28;20209;-71
2023/10/09 09:06:10;;;;;;;40.93;25.57;;;;;;;14.08;100.00;101000.28;5075680;28;20662;-71
2023/10/09 09:08:44;;;;;;;42.63;25.47;;;;;;;14.08;100.00;100998.44;5075582;28;20196;-72
2023/10/09 09:11:17;;;;;;;43.17;25.87;;;;;;;14.10;100.00;100998.28;5075850;28;20249;-72
2023/10/09 09:13:49;;;;;;;40.23;24.80;;;;;;;14.12;100.00;100991.69;5075545;28;20598;-72
2023/10/09 09:16:20;;;;;;;38.50;23.37;;;;;;;14.12;100.00;100998.94;5075791;28;20214;-72
2023/10/09 09:19:04;;;;;;;37.80;23.33;;;;;;;14.13;100.00;101000.63;5075679;28;20316;-72
2023/10/09 09:21:40;;;;;;;38.80;23.97;;;;;;;14.13;100.00;101000.63;5075750;28;20268;-72
2023/10/09 09:24:26;;;;;;;39.63;24.97;;;;;;;14.15;100.00;101003.97;5075181;28;20229;-72
2023/10/09 09:27:09;;;;;;;39.20;25.47;;;;;;;14.16;100.00;100998.41;5075547;28;20281;-72
2023/10/09 09:29:52;;;;;;;36.10;22.83;;;;;;;14.17;100.00;101004.63;5075533;28;20280;-72
2023/10/09 09:32:35;;;;;;;33.17;21.53;;;;;;;14.17;100.00;101018.94;5075515;28;20228;-72
2023/10/09 09:35:05;;;;;;;35.60;20.87;;;;;;;14.20;100.00;101029.38;5075016;28;20233;-72
2023/10/09 09:37:50;;;;;;;32.70;21.60;;;;;;;14.21;100.00;101038.28;5075003;28;20592;-72
2023/10/09 09:40:29;;;;;;;42.03;23.87;;;;;;;14.22;100.00;101037.25;5075232;28;20530;-71
2023/10/09 09:43:06;;;;;;;36.33;22.73;;;;;;;14.23;100.00;101036.25;5074937;28;20284;-71
2023/10/09 09:45:37;;;;;;;39.90;24.53;;;;;;;14.24;100.00;101016.38;5075121;28;20236;-71
2023/10/09 09:48:06;;;;;;;36.67;23.57;;;;;;;14.23;100.00;101012.84;5075070;28;20212;-71
2023/10/09 09:50:43;;;;;;;40.63;22.83;;;;;;;14.22;100.00;101011.16;5075051;28;20206;-71
2023/10/09 09:53:16;;;;;;;43.57;25.33;;;;;;;14.23;100.00;100995.84;5074723;28;20644;-71
2023/10/09 09:55:55;;;;;;;40.33;24.80;;;;;;;14.23;100.00;101009.31;5074810;28;20226;-71
2023/10/09 09:58:32;;;;;;;41.80;25.13;;;;;;;14.24;100.00;101005.63;5074701;28;20550;-70
2023/10/09 10:01:14;;;;;;;43.83;25.67;;;;;;;14.24;100.00;100997.53;5075123;28;20276;-71
2023/10/09 10:03:48;;;;;;;44.90;27.23;;;;;;;14.25;100.00;100996.50;5074809;28;20189;-70
2023/10/09 10:06:20;;;;;;;45.87;27.57;;;;;;;14.25;100.00;101004.56;5074525;28;20181;-70
2023/10/09 10:08:51;;;;;;;44.40;26.10;;;;;;;14.24;100.00;100997.53;5074422;28;20661;-69
2023/10/09 10:11:44;;;;;;;44.23;25.67;;;;;;;14.25;100.00;100999.19;5074380;28;20687;-69
2023/10/09 10:14:25;;;;;;;44.13;27.10;;;;;;;14.24;100.00;101000.22;5074526;28;20640;-69
2023/10/09 10:17:16;;;;;;;45.67;26.97;;;;;;;14.27;100.00;101005.25;5075093;28;20320;-69
2023/10/09 10:20:25;;;;;;;49.73;27.50;;;;;;;14.29;100.00;100996.97;5074522;28;20225;-69
2023/10/09 10:22:52;;;;;;;48.70;27.90;;;;;;;14.28;100.00;100987.25;5074060;28;20202;-69
2023/10/09 10:25:41;;;;;;;39.33;24.93;;;;;;;14.30;100.00;100987.88;5074371;28;20229;-69
2023/10/09 10:28:38;;;;;;;36.30;24.57;;;;;;;14.30;100.00;100991.44;5074381;28;20198;-69
2023/10/09 10:31:13;;;;;;;44.97;25.10;;;;;;;14.33;100.00;100990.22;5074248;28;20212;-69
2023/10/09 10:34:06;;;;;;;43.77;25.20;;;;;;;14.35;100.00;100994.44;5074244;28;20246;-69
2023/10/09 10:36:35;;;;;;;39.73;24.53;;;;;;;14.35;100.00;100994.44;5074127;28;20225;-69
2023/10/09 10:39:09;;;;;;;43.50;25.87;;;;;;;14.37;100.00;100996.97;5074092;28;20270;-69
2023/10/09 10:41:48;;;;;;;46.77;24.67;;;;;;;14.38;100.00;100998.66;5073865;28;20189;-69
2023/10/09 10:44:41;;;;;;;41.20;25.23;;;;;;;14.38;100.00;100990.56;5073941;28;20221;-69
2023/10/09 10:47:24;;;;;;;39.53;25.00;;;;;;;14.42;100.00;100991.88;5073752;28;20688;-69
2023/10/09 10:49:58;;;;;;;41.03;26.50;;;;;;;14.42;100.00;100995.41;5073992;28;20196;-70
2023/10/09 10:52:41;;;;;;;38.67;24.20;;;;;;;14.45;100.00;100999.63;5073699;28;20195;-69
2023/10/09 10:55:31;;;;;;;36.93;23.80;;;;;;;14.46;100.00;100994.03;5073859;28;20225;-69
2023/10/09 10:58:10;;;;;;;35.30;23.20;;;;;;;14.47;100.00;100998.41;5073754;28;20560;-70
2023/10/09 11:03:35;;;;;;;37.77;23.33;;;;;;;14.50;100.00;100994.50;5073702;28;20200;-70
2023/10/09 11:06:13;;;;;;;32.93;22.10;;;;;;;14.51;100.00;100999.75;5073767;28;20228;-70
2023/10/09 11:08:54;;;;;;;33.00;21.80;;;;;;;14.51;100.00;100991.66;5073712;28;20255;-70
2023/10/09 11:11:23;;;;;;;40.07;23.67;;;;;;;14.51;100.00;100994.34;5073645;28;20235;-69
2023/10/09 11:13:57;;;;;;;33.70;22.27;;;;;;;14.50;100.00;100997.22;5073160;28;20234;-69
2023/10/09 11:16:39;;;;;;;36.17;22.80;;;;;;;14.52;100.00;100989.81;5073565;28;20223;-69
2023/10/09 11:19:22;;;;;;;32.40;22.17;;;;;;;14.54;100.00;100994.00;5073265;28;20566;-70
2023/10/09 11:21:58;;;;;;;31.63;21.50;;;;;;;14.57;100.00;100993.63;5073629;28;20197;-70
2023/10/09 11:24:33;;;;;;;33.40;23.53;;;;;;;14.59;100.00;100996.97;5073453;28;20229;-70
2023/10/09 11:27:05;;;;;;;33.40;23.67;;;;;;;14.59;100.00;100996.97;5073479;28;20188;-69
2023/10/09 11:32:19;;;;;;;34.77;23.97;;;;;;;14.61;100.00;101002.19;5073065;28;20602;-71
2023/10/09 11:34:51;;;;;;;33.47;23.83;;;;;;;14.61;100.00;100994.94;5072869;28;20320;-70
2023/10/09 11:37:39;;;;;;;34.77;24.27;;;;;;;14.63;100.00;100998.28;5073176;28;20218;-71
2023/10/09 11:40:23;;;;;;;34.57;23.73;;;;;;;14.61;100.00;101000.34;5073106;28;20642;-70
2023/10/09 11:42:57;;;;;;;35.10;24.83;;;;;;;14.64;100.00;100999.13;5072612;28;20280;-68
2023/10/09 11:45:29;;;;;;;33.50;25.90;;;;;;;14.62;100.00;100998.47;5072768;28;20223;-68
2023/10/09 11:47:58;;;;;;;35.43;24.70;;;;;;;14.63;100.00;101003.69;5072629;28;20189;-69
2023/10/09 11:50:51;;;;;;;37.70;26.43;;;;;;;14.64;100.00;100988.34;5072717;28;20309;-69
2023/10/09 11:53:33;;;;;;;33.03;26.07;;;;;;;14.63;100.00;101000.97;5073249;28;20194;-69
2023/10/09 11:56:02;;;;;;;33.33;24.53;;;;;;;14.65;100.00;101006.19;5073238;28;20221;-69
2023/10/09 11:58:31;;;;;;;31.77;25.27;;;;;;;14.66;100.00;101003.31;5073089;28;20225;-69
2023/10/09 12:01:03;;;;;;;37.47;25.77;;;;;;;14.65;100.00;100996.25;5073137;28;20216;-69
2023/10/09 12:03:32;;;;;;;33.53;26.20;;;;;;;14.67;100.00;101004.16;5073674;28;20244;-70
2023/10/09 12:06:05;;;;;;;33.27;25.00;;;;;;;14.68;100.00;101014.75;5072817;28;20245;-70
2023/10/09 12:08:34;;;;;;;30.10;24.00;;;;;;;14.68;100.00;101012.06;5073153;28;20201;-70
2023/10/09 12:11:08;;;;;;;33.90;25.67;;;;;;;14.70;100.00;101012.72;5072740;28;20755;-70
2023/10/09 12:13:39;;;;;;;32.23;25.33;;;;;;;14.73;100.00;101008.81;5073024;28;20288;-70
2023/10/09 12:16:09;;;;;;;35.47;27.03;;;;;;;14.75;100.00;101009.50;5072966;28;20209;-70
2023/10/09 12:18:39;;;;;;;36.17;26.60;;;;;;;14.76;100.00;101010.34;5072985;28;20267;-70
2023/10/09 12:21:15;;;;;;;29.23;23.23;;;;;;;14.75;100.00;101011.34;5073137;28;20263;-68
2023/10/09 12:23:47;;;;;;;31.13;24.40;;;;;;;14.78;100.00;101005.59;5076676;28;20190;-68
2023/10/09 12:26:16;;;;;;;32.37;25.03;;;;;;;14.80;100.00;101008.94;5076762;28;20247;-68
2023/10/09 12:28:46;;;;;;;30.23;23.40;;;;;;;14.81;100.00;101000.66;5076658;28;20236;-69
2023/10/09 12:31:15;;;;;;;28.80;22.53;;;;;;;14.81;100.00;101005.22;5076675;28;20273;-69
2023/10/09 12:33:44;;;;;;;32.80;25.33;;;;;;;14.84;100.00;101007.56;5076472;28;20343;-69
2023/10/09 12:36:19;;;;;;;32.17;24.43;;;;;;;14.84;100.00;101010.25;5076137;28;20671;-69
2023/10/09 12:38:50;;;;;;;30.60;22.77;;;;;;;14.81;100.00;101000.66;5076055;28;20563;-70
2023/10/09 12:41:20;;;;;;;34.30;25.80;;;;;;;14.84;100.00;101004.84;5076494;28;20251;-70